Wednesday, February 20, 2019, 3:26 PM EST
Back to Local

KGSB, Seymour-johnson Air Force Base

Location: Goldsboro, NC, United States Lat: 35.333
Local Time: 3:26 PM EST (20:26 GMT) Lon: -77.967
Time Zone: US/Eastern Elev: 108 ft

Show me the last for .
Show Decoded

2019-02-20 14:19 METAR KGSB 201919Z 05005KT 1 1/2SM BR OVC004 07/06 A3020 RMK RAE1856 TWR VIS 1
                 CIG 003 RWY26 SLP230 $ =
2019-02-20 14:09 METAR KGSB 201909Z 04006KT 2SM BR OVC004 07/06 A3020 RMK RAE1856 CIG 004 RWY26
                 SLP230 $ =
2019-02-20 13:56 METAR KGSB 201856Z 05006KT 5SM -RA OVC004 07/06 A3020 RMK AO2A RAE19RAB45 CIG
                 004 RWY26 SLP230 P0000 T00670058 $ =
2019-02-20 13:53 METAR KGSB 201853Z 04006KT 5SM -RA OVC004 07/06 A3021 RMK AO2A RAE19RAB45 CIG
                 004 RWY26 SLP234 $ =
2019-02-20 13:29 METAR KGSB 201829Z 03006KT 10SM OVC004 07/05 A3023 RMK RAE19 CIG 004 RWY26
                 SLP241 $ =
2019-02-20 13:19 METAR KGSB 201819Z 03004KT 10SM OVC006 06/05 A3024 RMK AO2A RAE19 CIG 004 RWY26
                 SLP244 $ =
2019-02-20 12:56 METAR KGSB 201756Z 05007KT 5SM -RA OVC006 06/05 A3024 RMK AO2A RAE00RAB53 CIG
                 005 RWY26 SLP244 P0000 60008 T00630053 10063 20027 58039 $ =
2019-02-20 12:53 METAR KGSB 201753Z 05008KT 5SM -RA OVC006 06/05 A3024 RMK AO2A RAE00RAB53 CIG
                 005 RWY26 SLP244 $ =
2019-02-20 11:56 METAR KGSB 201656Z 07007KT 5SM -RA OVC006 05/04 A3029 RMK AO2A RAB34 CIG 005
                 RWY26 SLP261 P0002 T00510041 $ =
2019-02-20 11:28 METAR KGSB 201628Z 05008KT 3SM -RA OVC006 05/03 A3032 RMK CIG 005 RWY26 PRESFR
                 SLP271 $ =
2019-02-20 11:26 METAR KGSB 201626Z 05009KT 9SM OVC006 05/03 A3032 RMK CIG 005 RWY26 PRESFR SLPNO
                 =
2019-02-20 11:11 METAR KGSB 201611Z AUTO 04009KT 10SM OVC007 04/03 A3034 RMK AO2 CIG 005 RWY26
                 SLP278 $ =
2019-02-20 11:08 METAR KGSB 201608Z 04008KT 10SM OVC006 04/03 A3034 RMK CIG 005 RWY26 SLPNO =
2019-02-20 10:56 METAR KGSB 201556Z AUTO 01008KT 9SM OVC007 04/03 A3035 RMK AO2 RAE24RAB25E53 CIG
                 005 RWY26 SLP282 P0001 T00440032 $ =
2019-02-20 10:53 METAR KGSB 201553Z AUTO 02008KT 8SM OVC007 04/03 A3035 RMK AO2 RAE24RAB25E53 CIG
                 005 RWY26 SLP282 $ =
2019-02-20 10:46 METAR KGSB 201546Z AUTO 04009KT 5SM -RA BR OVC007 04/03 A3034 RMK AO2 RAE24RAB25
                 CIG 005 RWY26 SLP278 $ =
2019-02-20 10:25 METAR KGSB 201525Z AUTO 05008KT 6SM -RA BR OVC008 04/03 A3035 RMK AO2 RAE24RAB25
                 CIG 005 RWY26 SLP281 $ =
2019-02-20 10:24 METAR KGSB 201524Z AUTO 05008KT 6SM BR OVC008 04/03 A3035 RMK AO2 RAE24 CIG 005
                 RWY26 SLP281 $ =
2019-02-20 09:56 METAR KGSB 201456Z AUTO 04009KT 5SM -RA BR OVC008 04/02 A3036 RMK AO2 RAE27RAB40
                 CIG 006 RWY26 SLP285 P0005 60005 T00350022 58003 $ =
2019-02-20 09:40 METAR KGSB 201440Z AUTO 04006KT 10SM -RA OVC008 04/02 A3037 RMK AO2 RAE27RAB40
                 SLP288 $ =
2019-02-20 09:27 METAR KGSB 201427Z AUTO 04009KT 10SM OVC008 04/02 A3036 RMK AO2 RAE27 CIG 007
                 RWY26 SLP285 $ =
2019-02-20 08:56 METAR KGSB 201356Z AUTO 05009KT 7SM -RA OVC008 04/02 A3037 RMK AO2 RAB43 SLP288
                 P0000 T00360020 $ =
2019-02-20 08:43 METAR KGSB 201343Z AUTO 07010KT 10SM -RA OVC009 03/02 A3037 RMK AO2 RAB43 CIG
                 008 RWY26 SLP288 $ =
2019-02-20 07:56 METAR KGSB 201256Z AUTO 04008KT 10SM OVC009 03/01 A3038 RMK AO2 SLP292 T00300012
                 $ =
2019-02-20 07:50 METAR KGSB 201250Z AUTO 04007KT 10SM OVC009 03/01 A3038 RMK AO2 SLP292 $ =
2019-02-20 06:56 METAR KGSB 201156Z AUTO 06009KT 10SM OVC010 03/01 A3036 RMK AO2 CIG 009 RWY26
                 SLP285 60000 70013 55027 =
2019-02-20 06:08 METAR KGSB 201108Z AUTO 04008KT 10SM BKN011 OVC025 02/00 A3039 RMK AO2 CIG
                 011V025 CIG 010 RWY26 SLP295 $ =
2019-02-20 05:56 METAR KGSB 201056Z AUTO 04008KT 10SM SCT012 OVC025 02/00 A3040 RMK AO2 SLP298
                 T00230002 $ =
2019-02-20 05:05 METAR KGSB 201005Z AUTO 06008KT 10SM BKN027 OVC070 02/00 A3038 RMK AO2 CIG
                 027V070 BKN V SCT CIG 025 RWY26 SLP292 $ =
2019-02-20 04:56 METAR KGSB 200956Z AUTO 07009KT 10SM SCT027 OVC070 02/00 A3039 RMK AO2 UPB16E25
                 SLP295 P0000 =
2019-02-20 04:25 METAR KGSB 200925Z AUTO 07008KT 10SM FEW023 BKN065 02/M01 A3040 RMK AO2 UPB16E25
                 SLP298 $ =
2019-02-20 04:16 METAR KGSB 200916Z AUTO 07011KT 10SM -UP BKN060 02/M01 A3039 RMK AO2 UPB16
                 PRESFR SLP295 $ =
2019-02-20 03:56 METAR KGSB 200856Z AUTO 04009KT 10SM SCT050 BKN070 02/M01 A3044 RMK AO2 SLP312
                 57029 =
2019-02-20 02:56 METAR KGSB 200756Z AUTO 07007KT 10SM BKN046 OVC055 02/M01 A3047 RMK AO2 SLP322
                 T00211007 $ =
2019-02-20 01:56 METAR KGSB 200656Z AUTO 05007KT 10SM BKN075 02/00 A3050 RMK AO2 SLP332 T00220001
                 $ =
2019-02-20 00:56 METAR KGSB 200556Z AUTO 06008KT 10SM SCT065 02/01 A3053 RMK AO2 SLP342 60012
                 T00240006 10049 20023 57016 $ =
2019-02-19 23:56 METAR KGSB 200456Z AUTO 05008KT 10SM SCT090 02/00 A3056 RMK AO2
                 RAE0356UPB0356E07 SLP353 P0000 T00230004 400780023 $ =
2019-02-19 22:56 METAR KGSB 200356Z 07009KT 9SM -RA BKN041 03/01 A3056 RMK AO2A UPB0255 SLP352
                 P0005 T00280012 $ =
2019-02-19 22:50 METAR KGSB 200350Z 07006KT 8SM -RA FEW038 BKN046 03/01 A3056 RMK A02A UPB0256
                 SLP352 $ =
2019-02-19 21:57 METAR KGSB 200257Z AUTO 07004KT 10SM -UP FEW046 03/02 A3057 RMK AO2 UPB55 SLP356
                 $ =
2019-02-19 21:56 METAR KGSB 200256Z AUTO 06005KT 10SM FEW046 03/02 A3058 RMK AO2 RAE41UPB41E45
                 PRESRR SLP359 P0005 60007 T00320016 53006 $ =
2019-02-19 21:45 METAR KGSB 200245Z AUTO 07006KT 10SM SCT048 03/01 A3054 RMK AO2 RAE41UPB41E45
                 SLP346 $ =
2019-02-19 21:44 METAR KGSB 200244Z AUTO 07006KT 10SM -UP SCT048 03/01 A3054 RMK AO2 RAE41UPB41
                 SLP346 $ =
2019-02-19 20:56 METAR KGSB 200156Z AUTO 06008KT 9SM -RA FEW060 04/01 A3057 RMK AO2 SLP356 P0002
                 T00380010 $ =
2019-02-19 20:14 METAR KGSB 200114Z AUTO 04004KT 10SM -RA FEW050 FEW060 05/01 A3057 RMK AO2
                 PRESRR SLP356 $ =
2019-02-19 19:56 METAR KGSB 200056Z 09007KT 6SM -RA BKN090 05/02 A3055 RMK PRESFR SLP349
                 T00480020 $ =
2019-02-19 19:43 METAR KGSB 200043Z 06004KT 6SM -RA BKN090 05/02 A3057 RMK SLP356 $ =
2019-02-19 18:56 METAR KGSB 192356Z AUTO 00000KT 10SM FEW100 05/02 A3056 RMK AO2 RAE2256 SLP352
                 P0000 60001 T00470017 10070 20047 52018 $ =
2019-02-19 17:56 METAR KGSB 192256Z 06006KT 6SM -RA BKN095 05/01 A3055 RMK AO2A
                 RAB2156E04RAB09E21RAB30 SLP349 P0001 T00480006 $ =
2019-02-19 17:15 METAR KGSB 192215Z 05004KT 6SM -RA BKN085 05/00 A3056 RMK RAB2156E04RAB09 PRESRR
                 SLP352 $ =
2019-02-19 16:56 METAR KGSB 192156Z 03007KT 6SM -RAPL BKN075 05/00 A3054 RMK AO2A RAB10E33RAB41
                 SLP346 P0000 T00541004 $ =
2019-02-19 16:20 METAR KGSB 192120Z 05009KT 5SM -RAPL FEW090 06/M01 A3052 RMK RAB10 SLP339 $ =
2019-02-19 16:10 METAR KGSB 192110Z AUTO 02010KT 10SM -RA FEW070 SCT095 06/M02 A3053 RMK AO2
                 RAB10 PRESRR SLP342 $ =
2019-02-19 15:56 METAR KGSB 192056Z AUTO 07006KT 10SM BKN095 07/M01 A3051 RMK AO2 RAB39E50 SLP335
                 P0000 60000 T00661013 55016 $ =
2019-02-19 15:50 METAR KGSB 192050Z AUTO 07006KT 10SM SCT095 07/M01 A3051 RMK AO2 RAB39E50 SLP335
                 $ =
2019-02-19 15:39 METAR KGSB 192039Z AUTO 07008KT 10SM -RA FEW100 07/M01 A3050 RMK AO2 RAB39
                 SLP332 $ =

Support USWX by starting your Amazon purchase here.